Time;durP1;ratioP1;P1;durP2;ratioP2;P2;SDS_P1;SDS_P2;PMS_P1;PMS_P2;Temp;Humidity;BMP_temperature;BMP_pressure;BME280_temperature;BME280_humidity;BME280_pressure;Samples;Min_cycle;Max_cycle;Signal;HPM_P1;HPM_P2
2022/12/17 13:06:53;;;;;;;;;69.25;51.75;;;;;1.92;100.00;101732.06;6098637;23;45393;-84
2022/12/17 13:09:37;;;;;;;;;61.75;49.00;;;;;1.88;100.00;101719.53;6074509;23;46777;-84
2022/12/17 13:12:18;;;;;;;;;64.00;49.75;;;;;1.87;100.00;101725.63;6075196;23;45416;-84
2022/12/17 13:14:51;;;;;;;;;65.00;50.25;;;;;1.78;100.00;101715.44;6099929;23;45085;-84
2022/12/17 13:17:16;;;;;;;;;58.00;46.50;;;;;1.74;100.00;101716.94;6076685;23;45327;-84
2022/12/17 13:19:58;;;;;;;;;59.25;46.25;;;;;1.71;100.00;101721.09;6075497;23;47471;-83
2022/12/17 13:22:32;;;;;;;;;51.25;36.25;;;;;1.66;100.00;101710.31;6076702;23;45448;-83
2022/12/17 13:25:33;;;;;;;;;53.75;46.25;;;;;1.60;100.00;101710.81;6138440;22;45322;-85
2022/12/17 13:27:59;;;;;;;;;48.75;42.00;;;;;1.59;100.00;101719.47;6157890;23;45406;-84
2022/12/17 13:30:34;;;;;;;;;59.75;48.50;;;;;1.60;100.00;101712.53;6131029;23;47839;-85
2022/12/17 13:33:32;;;;;;;;;53.00;44.50;;;;;1.61;100.00;101714.31;6133564;23;44797;-84
2022/12/17 13:36:25;;;;;;;;;57.25;44.00;;;;;1.67;100.00;101719.06;6131463;23;45564;-84
2022/12/17 13:39:07;;;;;;;;;47.75;43.50;;;;;1.72;100.00;101720.28;6133868;23;45355;-83
2022/12/17 13:41:34;;;;;;;;;50.50;43.00;;;;;1.72;100.00;101715.03;6132924;23;45847;-84
2022/12/17 13:44:21;;;;;;;;;43.50;41.75;;;;;1.73;100.00;101712.50;6131893;23;45387;-84
2022/12/17 13:46:49;;;;;;;;;49.25;43.00;;;;;1.72;100.00;101705.47;6133263;23;44935;-84
2022/12/17 13:49:25;;;;;;;;;47.25;43.00;;;;;1.77;100.00;101714.50;6131627;23;45495;-84
2022/12/17 13:52:23;;;;;;;;;59.50;48.00;;;;;1.75;100.00;101694.25;6158433;23;47004;-84
2022/12/17 13:54:50;;;;;;;;;52.00;45.00;;;;;1.76;100.00;101698.69;6163886;23;45522;-83
2022/12/17 13:57:22;;;;;;;;;37.00;35.00;;;;;1.80;100.00;101704.25;6113493;23;45455;-83
2022/12/17 14:00:01;;;;;;;;;55.25;48.25;;;;;1.78;100.00;101700.59;6165338;23;45416;-84
2022/12/17 14:02:40;;;;;;;;;60.00;46.00;;;;;1.76;100.00;101702.22;6191544;22;45338;-84
2022/12/17 14:05:31;;;;;;;;;57.25;46.25;;;;;1.77;100.00;101700.50;6227901;22;45349;-83
2022/12/17 14:08:00;;;;;;;;;65.50;47.25;;;;;1.79;100.00;101712.91;6199888;22;45395;-84
2022/12/17 14:10:27;;;;;;;;;55.25;45.25;;;;;1.78;100.00;101712.81;6226691;22;44677;-85
2022/12/17 14:13:12;;;;;;;;;53.50;43.00;;;;;1.77;100.00;101714.50;6226257;22;45727;-84
2022/12/17 14:15:43;;;;;;;;;50.50;42.75;;;;;1.70;100.00;101700.94;6197749;22;45572;-84
2022/12/17 14:18:13;;;;;;;;;60.75;49.25;;;;;1.74;100.00;101713.44;6225965;22;45425;-85
2022/12/17 14:20:41;;;;;;;;;59.50;49.75;;;;;1.71;100.00;101711.50;6198108;22;45735;-83
2022/12/17 14:23:14;;;;;;;;;50.75;39.75;;;;;1.62;100.00;101705.66;6226239;22;45277;-84
2022/12/17 14:25:43;;;;;;;;;56.00;43.50;;;;;1.70;100.00;101721.91;6199737;22;45353;-85
2022/12/17 14:28:30;;;;;;;;;50.25;43.00;;;;;1.71;100.00;101734.19;6226260;22;45410;-84
2022/12/17 14:31:35;;;;;;;;;60.75;48.50;;;;;1.70;100.00;101724.53;6224198;22;45279;-84
2022/12/17 14:34:07;;;;;;;;;56.25;45.75;;;;;1.70;100.00;101727.16;6190566;22;46608;-83
2022/12/17 14:36:35;;;;;;;;;56.25;44.75;;;;;1.67;100.00;101717.34;6224171;22;45336;-86
2022/12/17 14:39:09;;;;;;;;;62.75;46.75;;;;;1.77;100.00;101738.13;6223840;22;45370;-83
2022/12/17 14:44:27;;;;;;;;;50.50;42.00;;;;;1.69;100.00;101726.22;6223197;22;45280;-83
2022/12/17 14:47:19;;;;;;;;;56.00;46.25;;;;;1.78;100.00;101733.81;6196609;22;45400;-84
2022/12/17 14:50:03;;;;;;;;;55.00;47.25;;;;;1.74;100.00;101719.56;6223732;22;45347;-84
2022/12/17 14:52:34;;;;;;;;;49.75;43.00;;;;;1.83;100.00;101718.34;6223364;22;45301;-84
2022/12/17 14:54:59;;;;;;;;;57.75;44.50;;;;;1.85;100.00;101711.50;6195679;22;47368;-84
2022/12/17 14:57:25;;;;;;;;;64.00;50.50;;;;;1.86;100.00;101708.03;6220800;22;45690;-85
2022/12/17 14:59:51;;;;;;;;;53.00;44.75;;;;;1.85;100.00;101708.88;6222173;22;45644;-85
2022/12/17 15:02:25;;;;;;;;;52.00;41.25;;;;;1.80;100.00;101703.34;6196555;22;45313;-84
2022/12/17 15:04:56;;;;;;;;;45.00;41.50;;;;;1.79;100.00;101712.00;6222417;22;46964;-84
2022/12/17 15:07:25;;;;;;;;;45.75;41.25;;;;;1.79;100.00;101709.38;6224423;22;45353;-84
2022/12/17 15:09:53;;;;;;;;;42.25;36.50;;;;;1.77;100.00;101725.00;6226799;22;44765;-84
2022/12/17 15:12:20;;;;;;;;;50.75;42.25;;;;;1.75;100.00;101720.47;6196848;22;45191;-84
2022/12/17 15:14:47;;;;;;;;;47.75;42.75;;;;;1.74;100.00;101714.31;6223096;22;45386;-84
2022/12/17 15:17:13;;;;;;;;;45.00;39.00;;;;;1.78;100.00;101715.44;6221368;22;45405;-84
2022/12/17 15:19:39;;;;;;;;;51.00;45.75;;;;;1.71;100.00;101703.63;6221875;22;45432;-84
2022/12/17 15:22:04;;;;;;;;;47.50;44.00;;;;;1.78;100.00;101711.09;6222075;22;44772;-84
2022/12/17 15:24:30;;;;;;;;;45.00;36.25;;;;;1.77;100.00;101703.13;6218817;22;47557;-84
2022/12/17 15:26:56;;;;;;;;;47.00;39.50;;;;;1.72;99.97;101694.06;6193803;22;45292;-85
2022/12/17 15:29:23;;;;;;;;;49.67;39.33;;;;;1.69;100.00;101702.63;6221770;22;45381;-85
2022/12/17 15:31:49;;;;;;;;;47.50;38.75;;;;;1.64;100.00;101711.91;6219746;22;45501;-84
2022/12/17 15:34:14;;;;;;;;;45.50;42.25;;;;;1.63;100.00;101715.31;6194280;22;46699;-84
2022/12/17 15:36:40;;;;;;;;;33.67;27.67;;;;;1.58;100.00;101711.50;6223611;22;45437;-85
2022/12/17 15:39:07;;;;;;;;;32.75;30.50;;;;;1.59;100.00;101729.94;6223616;22;45383;-85
2022/12/17 15:44:18;;;;;;;;;51.00;42.25;;;;;1.54;100.00;101730.47;6225177;22;44835;-85
2022/12/17 15:46:45;;;;;;;;;42.00;38.00;;;;;1.50;100.00;101733.69;6220940;22;45408;-84
2022/12/17 15:49:10;;;;;;;;;49.75;44.00;;;;;1.34;100.00;101711.69;6221982;22;45372;-84
2022/12/17 15:51:36;;;;;;;;;43.67;37.67;;;;;1.42;100.00;101734.91;6256411;22;45212;-84
2022/12/17 15:54:01;;;;;;;;;47.00;35.33;;;;;1.40;100.00;101748.78;6277057;22;47153;-84
2022/12/17 15:56:27;;;;;;;;;40.33;37.33;;;;;1.31;100.00;101731.53;6252472;22;45353;-84
2022/12/17 15:58:56;;;;;;;;;41.25;38.25;;;;;1.23;100.00;101731.00;6252160;22;45280;-83
2022/12/17 16:01:21;;;;;;;;;32.00;26.75;;;;;1.24;100.00;101748.56;6252478;22;45356;-84
2022/12/17 16:03:47;;;;;;;;;40.33;34.33;;;;;1.29;100.00;101769.84;6249630;22;45232;-84
2022/12/17 16:06:13;;;;;;;;;54.25;41.25;;;;;1.25;100.00;101759.94;6256815;22;45841;-84
2022/12/17 16:08:39;;;;;;;;;39.00;33.50;;;;;1.14;100.00;101726.06;6256274;22;44799;-84
2022/12/17 16:11:09;;;;;;;;;41.00;38.50;;;;;1.15;100.00;101724.34;6255303;22;45402;-83
2022/12/17 16:13:38;;;;;;;;;40.50;35.25;;;;;1.19;100.00;101755.19;6256808;22;47265;-85
2022/12/17 16:19:26;;;;;;;;;39.00;36.67;;;;;1.12;100.00;101755.59;6256720;22;44704;-83
2022/12/17 16:21:51;;;;;;;;;41.00;35.75;;;;;1.07;100.00;101742.19;6257884;22;45344;-85
2022/12/17 16:24:17;;;;;;;;;34.33;31.00;;;;;0.99;100.00;101725.06;6257828;22;46349;-84
2022/12/17 16:26:43;;;;;;;;;39.00;37.33;;;;;1.02;100.00;101735.72;6255718;22;45394;-85
2022/12/17 16:29:08;;;;;;;;;45.50;39.25;;;;;1.06;100.00;101742.97;6255698;22;45236;-85
2022/12/17 16:31:34;;;;;;;;;39.75;36.50;;;;;0.97;100.00;101730.16;6283185;22;45421;-83
2022/12/17 16:34:00;;;;;;;;;38.75;35.00;;;;;1.03;100.00;101742.78;6249207;22;47614;-85
2022/12/17 16:36:25;;;;;;;;;38.75;33.50;;;;;0.96;100.00;101744.06;6249893;22;45393;-84
2022/12/17 16:38:53;;;;;;;;;39.25;33.75;;;;;0.98;100.00;101760.78;6248983;22;45415;-85
2022/12/17 16:41:19;;;;;;;;;33.00;27.33;;;;;0.93;100.00;101759.56;6249051;22;45184;-84
2022/12/17 16:43:46;;;;;;;;;36.25;28.50;;;;;0.96;100.00;101765.00;6250755;22;45787;-83
2022/12/17 16:46:34;;;;;;;;;34.00;31.67;;;;;0.93;100.00;101754.34;6248903;22;45388;-83
2022/12/17 16:49:20;;;;;;;;;43.00;32.75;;;;;0.84;100.00;101732.75;6253824;22;45319;-84
2022/12/17 16:51:49;;;;;;;;;34.50;29.50;;;;;0.84;100.00;101721.38;6250535;22;44951;-83
2022/12/17 16:54:17;;;;;;;;;34.50;30.00;;;;;0.85;100.00;101739.81;6254563;22;46931;-84
2022/12/17 16:56:44;;;;;;;;;34.00;32.00;;;;;0.84;100.00;101745.84;6243177;22;45648;-85
2022/12/17 16:59:10;;;;;;;;;36.33;27.00;;;;;0.76;100.00;101728.69;6256751;22;44751;-87
2022/12/17 17:01:43;;;;;;;;;31.67;31.67;;;;;0.82;100.00;101741.31;6282982;22;45357;-85
2022/12/17 17:04:10;;;;;;;;;39.50;38.25;;;;;0.73;100.00;101739.84;6255991;22;45336;-85
2022/12/17 17:06:47;;;;;;;;;39.75;37.50;;;;;0.75;100.00;101751.34;6249776;22;45294;-84
2022/12/17 17:09:15;;;;;;;;;37.75;30.75;;;;;0.77;100.00;101747.13;6276564;22;45299;-83
2022/12/17 17:11:41;;;;;;;;;38.00;35.67;;;;;0.74;100.00;101741.66;6253558;22;45485;-83
2022/12/17 17:14:08;;;;;;;;;40.25;36.50;;;;;0.74;100.00;101735.53;6252730;22;45581;-83
2022/12/17 17:16:34;;;;;;;;;52.00;40.50;;;;;0.70;100.00;101728.25;6249664;22;45484;-84
2022/12/17 17:19:00;;;;;;;;;39.25;37.75;;;;;0.74;100.00;101746.00;6252975;22;45373;-84
2022/12/17 17:21:34;;;;;;;;;49.50;38.50;;;;;0.71;100.00;101746.69;6252367;22;45361;-83
2022/12/17 17:24:16;;;;;;;;;40.25;38.50;;;;;0.68;100.00;101736.00;6251387;22;46973;-84
2022/12/17 17:26:41;;;;;;;;;46.50;39.50;;;;;0.69;100.00;101731.69;6252193;22;45318;-84
2022/12/17 17:29:07;;;;;;;;;28.75;26.00;;;;;0.59;100.00;101738.88;6249999;22;45373;-83
2022/12/17 17:31:34;;;;;;;;;32.25;31.25;;;;;0.61;100.00;101749.47;6252313;22;45524;-83
2022/12/17 17:33:59;;;;;;;;;38.25;33.25;;;;;0.57;100.00;101753.56;6252249;22;45666;-85
2022/12/17 17:36:32;;;;;;;;;31.25;26.25;;;;;0.55;100.00;101755.19;6252998;22;45356;-84
2022/12/17 17:38:58;;;;;;;;;44.25;39.25;;;;;0.54;100.00;101755.97;6254823;22;45304;-84
2022/12/17 17:41:26;;;;;;;;;36.50;34.00;;;;;0.55;100.00;101770.00;6254709;22;45306;-84
2022/12/17 17:44:07;;;;;;;;;42.50;38.75;;;;;0.55;100.00;101778.75;6280172;22;47064;-85
2022/12/17 17:46:33;;;;;;;;;34.00;29.50;;;;;0.45;100.00;101768.41;6255316;22;45467;-84
2022/12/17 17:49:01;;;;;;;;;38.25;37.00;;;;;0.49;100.00;101759.97;6255438;22;45454;-85
2022/12/17 17:51:30;;;;;;;;;43.25;40.50;;;;;0.52;100.00;101762.81;6254345;22;44915;-83
2022/12/17 17:53:56;;;;;;;;;48.00;39.50;;;;;0.43;100.00;101745.56;6256200;22;45433;-84
2022/12/17 17:56:25;;;;;;;;;37.50;33.25;;;;;0.41;100.00;101750.69;6254734;22;44784;-85
2022/12/17 18:02:14;;;;;;;;;45.50;39.75;;;;;0.43;100.00;101750.81;6256652;22;45474;-84
2022/12/17 18:04:39;;;;;;;;;39.50;35.25;;;;;0.38;100.00;101750.44;6254130;22;46669;-83
2022/12/17 18:07:05;;;;;;;;;50.50;44.50;;;;;0.36;100.00;101741.59;6252219;22;45230;-84
2022/12/17 18:09:30;;;;;;;;;60.00;47.00;;;;;0.26;100.00;101718.19;6255014;22;45389;-84
2022/12/17 18:11:56;;;;;;;;;49.00;41.25;;;;;0.37;100.00;101739.09;6254359;22;45317;-85
2022/12/17 18:17:50;;;;;;;;;36.25;31.75;;;;;0.34;100.00;101741.50;6256728;22;45475;-85
2022/12/17 18:20:16;;;;;;;;;37.75;33.25;;;;;0.32;100.00;101742.16;6278589;22;45507;-84
2022/12/17 18:22:44;;;;;;;;;43.50;42.50;;;;;0.22;100.00;101737.06;6256337;22;45460;-84
2022/12/17 18:25:10;;;;;;;;;54.75;45.00;;;;;0.29;100.00;101750.72;6253629;22;45076;-84
2022/12/17 18:27:36;;;;;;;;;48.50;41.00;;;;;0.21;100.00;101732.66;6278535;22;44940;-83
2022/12/17 18:30:02;;;;;;;;;41.00;35.75;;;;;0.25;100.00;101737.31;6251887;22;44787;-84
2022/12/17 18:32:27;;;;;;;;;50.75;42.75;;;;;0.24;100.00;101744.22;6251790;22;45292;-85
2022/12/17 18:34:53;;;;;;;;;51.50;44.00;;;;;0.26;100.00;101753.09;6250958;22;47217;-84
2022/12/17 18:40:40;;;;;;;;;51.75;44.25;;;;;0.15;100.00;101757.56;6255237;22;45360;-84
2022/12/17 18:43:23;;;;;;;;;43.00;38.75;;;;;0.21;100.00;101767.56;6252414;22;45636;-83
2022/12/17 18:45:52;;;;;;;;;47.25;39.75;;;;;0.17;100.00;101758.59;6253847;22;46218;-84
2022/12/17 18:48:19;;;;;;;;;46.75;41.75;;;;;0.08;100.00;101750.09;6251357;22;45188;-86
2022/12/17 18:50:45;;;;;;;;;47.25;38.00;;;;;0.14;100.00;101765.28;6250493;22;45506;-83
2022/12/17 18:53:10;;;;;;;;;43.50;41.75;;;;;0.15;100.00;101773.25;6250723;22;45953;-83
2022/12/17 18:55:39;;;;;;;;;57.25;48.50;;;;;0.12;100.00;101775.66;6251601;22;47558;-84
2022/12/17 18:58:06;;;;;;;;;60.00;46.00;;;;;0.12;100.00;101773.06;6250675;22;45375;-84
2022/12/17 19:00:32;;;;;;;;;60.50;49.50;;;;;0.19;100.00;101785.75;6253122;22;45306;-84
2022/12/17 19:02:58;;;;;;;;;60.50;48.50;;;;;0.18;100.00;101786.56;6250801;22;44753;-83
2022/12/17 19:05:23;;;;;;;;;51.50;46.00;;;;;0.17;100.00;101771.66;6250044;22;46579;-83
2022/12/17 19:07:49;;;;;;;;;65.25;47.25;;;;;0.14;100.00;101774.06;6253745;22;45330;-83
2022/12/17 19:13:36;;;;;;;;;61.75;47.00;;;;;0.19;100.00;101779.63;6252040;22;45351;-83
2022/12/17 19:16:07;;;;;;;;;47.25;45.00;;;;;0.22;100.00;101776.31;6275490;22;47240;-84
2022/12/17 19:18:33;;;;;;;;;53.75;48.75;;;;;0.17;100.00;101776.91;6249606;22;45345;-84
2022/12/17 19:21:02;;;;;;;;;58.00;49.25;;;;;0.19;100.00;101779.63;6252679;22;45436;-83
2022/12/17 19:23:28;;;;;;;;;56.25;48.50;;;;;0.15;100.00;101780.19;6253292;22;45299;-84
2022/12/17 19:25:55;;;;;;;;;53.75;42.75;;;;;0.12;100.00;101783.50;6252809;22;45241;-83
2022/12/17 19:28:20;;;;;;;;;54.00;44.00;;;;;0.13;100.00;101780.09;6252378;22;45503;-84
2022/12/17 19:30:46;;;;;;;;;59.00;48.00;;;;;0.07;100.00;101769.19;6251646;22;45258;-84
2022/12/17 19:33:12;;;;;;;;;59.25;51.50;;;;;0.12;100.00;101783.50;6250616;22;45527;-83
2022/12/17 19:35:37;;;;;;;;;44.50;41.25;;;;;0.05;100.00;101770.78;6253436;22;46182;-84
2022/12/17 19:38:04;;;;;;;;;58.00;45.50;;;;;0.02;100.00;101762.72;6252590;22;46251;-83
2022/12/17 19:40:29;;;;;;;;;57.25;48.75;;;;;-0.01;100.00;101752.03;6255060;22;45238;-82
2022/12/17 19:42:58;;;;;;;;;60.25;48.00;;;;;0.05;100.00;101769.88;6255172;22;45220;-84
2022/12/17 19:45:23;;;;;;;;;63.00;50.00;;;;;0.04;100.00;101763.75;6253035;22;46563;-85
2022/12/17 19:47:49;;;;;;;;;57.00;48.75;;;;;-0.01;100.00;101765.09;6255030;22;45330;-85
2022/12/17 19:50:17;;;;;;;;;61.50;51.00;;;;;-0.04;100.00;101764.84;6254564;22;45389;-84
2022/12/17 19:52:49;;;;;;;;;60.50;48.25;;;;;0.00;100.00;101777.41;6255707;22;45549;-85
2022/12/17 19:55:20;;;;;;;;;55.75;47.50;;;;;-0.04;100.00;101786.72;6254085;22;48099;-83
2022/12/17 19:57:45;;;;;;;;;57.25;48.00;;;;;-0.01;100.00;101786.91;6253649;22;44780;-84
2022/12/17 20:03:34;;;;;;;;;53.75;46.25;;;;;-0.03;100.00;101803.31;6253993;22;45531;-83
2022/12/17 20:06:00;;;;;;;;;52.25;46.50;;;;;0.00;100.00;101798.31;6279396;22;45294;-83
2022/12/17 20:08:26;;;;;;;;;61.25;48.50;;;;;-0.09;100.00;101781.94;6280068;22;45355;-83
2022/12/17 20:10:52;;;;;;;;;57.00;46.75;;;;;-0.03;100.00;101803.31;6253434;22;45298;-86
2022/12/17 20:13:19;;;;;;;;;58.50;48.50;;;;;-0.08;100.00;101796.81;6256524;22;44798;-84
2022/12/17 20:15:45;;;;;;;;;64.00;49.50;;;;;-0.08;100.00;101808.19;6254654;22;46465;-83
2022/12/17 20:18:11;;;;;;;;;50.25;46.75;;;;;-0.10;100.00;101807.19;6253083;22;45465;-84
2022/12/17 20:20:37;;;;;;;;;46.75;41.25;;;;;-0.08;100.00;101807.25;6252635;22;45348;-82
2022/12/17 20:23:02;;;;;;;;;57.75;47.75;;;;;-0.05;100.00;101815.34;6251890;22;45303;-83
2022/12/17 20:26:15;;;;;;;;;51.00;46.00;;;;;-0.06;100.00;101816.13;6279952;22;46973;-82
2022/12/17 20:28:41;;;;;;;;;50.50;40.25;;;;;-0.06;100.00;101823.97;6255675;22;45364;-84
2022/12/17 20:31:07;;;;;;;;;54.75;48.25;;;;;-0.09;100.00;101818.53;6258002;22;45738;-85
2022/12/17 20:33:32;;;;;;;;;59.00;49.75;;;;;-0.08;100.00;101820.34;6258363;22;45396;-84
2022/12/17 20:36:09;;;;;;;;;57.00;48.00;;;;;-0.07;100.00;101819.56;6255808;22;47122;-83
2022/12/17 20:39:15;;;;;;;;;58.25;50.75;;;;;-0.07;100.00;101812.63;6256437;22;45303;-83
2022/12/17 20:41:42;;;;;;;;;48.50;44.25;;;;;-0.14;100.00;101798.97;6256793;22;44790;-84
2022/12/17 20:44:11;;;;;;;;;64.75;50.00;;;;;-0.11;100.00;101810.56;6257323;22;45273;-84
2022/12/17 20:46:41;;;;;;;;;45.75;42.25;;;;;-0.08;100.00;101815.13;6257206;22;45813;-84
2022/12/17 20:49:16;;;;;;;;;62.00;47.75;;;;;-0.12;100.00;101821.84;6257106;22;44826;-84
2022/12/17 20:51:42;;;;;;;;;54.25;47.50;;;;;-0.13;100.00;101821.72;6253107;22;45393;-83
2022/12/17 20:54:08;;;;;;;;;63.50;50.75;;;;;-0.08;100.00;101833.41;6256305;22;45196;-85
2022/12/17 20:56:34;;;;;;;;;64.00;51.00;;;;;-0.10;100.00;101833.31;6256059;22;47041;-85
2022/12/17 20:59:04;;;;;;;;;54.00;47.25;;;;;-0.10;100.00;101822.88;6260074;22;45427;-83
2022/12/17 21:01:33;;;;;;;;;65.50;48.50;;;;;-0.10;100.00;101824.56;6255530;22;45613;-84
2022/12/17 21:03:59;;;;;;;;;60.75;50.50;;;;;-0.14;100.00;101819.88;6232762;22;45185;-84
2022/12/17 21:06:31;;;;;;;;;50.50;42.75;;;;;-0.14;100.00;101818.22;6257872;22;47097;-83
2022/12/17 21:09:00;;;;;;;;;59.25;46.75;;;;;-0.11;100.00;101830.59;6260822;22;44730;-85
2022/12/17 21:11:28;;;;;;;;;61.25;49.25;;;;;-0.30;100.00;101797.84;6260806;22;44830;-84
2022/12/17 21:13:54;;;;;;;;;65.25;52.50;;;;;-0.15;100.00;101826.84;6260094;22;44897;-86
2022/12/17 21:16:26;;;;;;;;;64.50;51.25;;;;;-0.13;100.00;101835.69;6284000;22;48154;-85
2022/12/17 21:18:53;;;;;;;;;67.25;50.25;;;;;-0.17;100.00;101825.81;6259753;22;45341;-84
2022/12/17 21:21:21;;;;;;;;;57.50;48.00;;;;;-0.15;100.00;101829.44;6258313;22;45502;-86
2022/12/17 21:23:48;;;;;;;;;66.25;51.50;;;;;-0.18;100.00;101818.78;6258733;22;45256;-86
2022/12/17 21:26:18;;;;;;;;;62.00;47.00;;;;;-0.24;100.00;101798.31;6257494;22;48510;-84
2022/12/17 21:28:46;;;;;;;;;72.50;55.50;;;;;-0.15;100.00;101812.84;6284173;22;45318;-86
2022/12/17 21:31:33;;;;;;;;;58.50;46.75;;;;;-0.18;100.00;101800.47;6284441;22;45409;-85
2022/12/17 21:34:01;;;;;;;;;70.00;54.00;;;;;-0.25;100.00;101793.84;6258885;22;45559;-83
2022/12/17 21:36:28;;;;;;;;;66.75;50.50;;;;;-0.16;100.00;101805.78;6258713;22;47791;-84
2022/12/17 21:38:54;;;;;;;;;56.00;49.00;;;;;-0.17;100.00;101807.50;6258395;22;45368;-84
2022/12/17 21:41:29;;;;;;;;;63.00;50.75;;;;;-0.18;100.00;101800.47;6260943;22;45270;-84
2022/12/17 21:43:57;;;;;;;;;73.75;57.25;;;;;-0.25;100.00;101793.84;6261496;22;44812;-86
2022/12/17 21:46:26;;;;;;;;;57.50;48.00;;;;;-0.29;100.00;101794.44;6257711;22;45850;-84
2022/12/17 21:48:52;;;;;;;;;63.25;49.25;;;;;-0.31;100.00;101796.00;6229464;22;44796;-86
2022/12/17 21:51:19;;;;;;;;;69.25;54.25;;;;;-0.35;100.00;101803.53;6253942;22;45369;-84
2022/12/17 21:53:46;;;;;;;;;58.00;47.75;;;;;-0.45;100.00;101787.13;6254971;22;45379;-83
2022/12/17 21:56:16;;;;;;;;;59.75;48.50;;;;;-0.47;100.00;101777.38;6255344;22;46781;-84
2022/12/17 21:58:43;;;;;;;;;56.75;49.50;;;;;-0.50;100.00;101774.53;6257772;22;44779;-84
2022/12/17 22:01:10;;;;;;;;;63.50;51.25;;;;;-0.51;100.00;101777.94;6258333;22;45491;-85
2022/12/17 22:03:35;;;;;;;;;54.50;48.00;;;;;-0.51;100.00;101771.00;6257257;22;45627;-84
2022/12/17 22:06:10;;;;;;;;;62.75;48.75;;;;;-0.56;100.00;101766.25;6257551;22;45295;-84
2022/12/17 22:08:37;;;;;;;;;66.00;51.25;;;;;-0.56;100.00;101774.09;6259398;22;45136;-86
2022/12/17 22:11:27;;;;;;;;;58.50;48.75;;;;;-0.58;100.00;101773.97;6256846;22;45372;-84
2022/12/17 22:14:05;;;;;;;;;68.25;58.25;;;;;-0.55;100.00;101778.50;6260323;22;45925;-85
2022/12/17 22:16:35;;;;;;;;;52.25;45.25;;;;;-0.64;100.00;101773.50;6253652;22;46985;-84
2022/12/17 22:19:02;;;;;;;;;62.00;52.75;;;;;-0.61;100.00;101769.44;6253047;22;45381;-84
2022/12/17 22:21:32;;;;;;;;;57.50;50.00;;;;;-0.65;100.00;101777.81;6253630;22;45887;-83
2022/12/17 22:23:58;;;;;;;;;54.25;48.50;;;;;-0.66;100.00;101780.31;6252951;22;45335;-84
2022/12/17 22:26:23;;;;;;;;;66.75;51.25;;;;;-0.71;100.00;101777.31;6253151;22;47970;-85
2022/12/17 22:28:49;;;;;;;;;58.00;49.50;;;;;-0.75;100.00;101770.06;6258123;22;45272;-84
2022/12/17 22:34:03;;;;;;;;;65.75;51.25;;;;;-0.82;100.00;101771.31;6259348;22;45305;-84
2022/12/17 22:36:30;;;;;;;;;50.75;47.50;;;;;-0.83;100.00;101774.72;6254800;22;45472;-86
2022/12/17 22:38:59;;;;;;;;;58.25;46.75;;;;;-0.86;100.00;101757.91;6254677;22;45362;-87
2022/12/17 22:44:12;;;;;;;;;54.50;46.50;;;;;-0.90;100.00;101763.69;6258559;22;45352;-85
2022/12/17 22:46:49;;;;;;;;;54.75;45.75;;;;;-1.02;100.00;101753.19;6257816;22;45415;-85
2022/12/17 22:49:18;;;;;;;;;49.75;43.75;;;;;-0.94;100.00;101782.53;6255142;22;45360;-85
2022/12/17 22:51:44;;;;;;;;;54.50;45.00;;;;;-0.98;100.00;101768.31;6254549;22;45202;-85
2022/12/17 22:54:15;;;;;;;;;61.00;45.75;;;;;-1.07;100.00;101755.47;6258555;22;45490;-86
2022/12/17 22:56:52;;;;;;;;;57.75;49.00;;;;;-1.02;100.00;101766.25;6255066;22;46765;-85
2022/12/17 22:59:18;;;;;;;;;66.50;48.25;;;;;-1.26;100.00;101734.84;6256622;22;45379;-85
2022/12/17 23:01:55;;;;;;;;;54.75;45.25;;;;;-1.37;100.00;101711.31;6280957;22;45237;-86
2022/12/17 23:04:43;;;;;;;;;30.75;30.00;;;;;-1.12;100.00;101753.28;6257477;22;45448;-85
2022/12/17 23:07:33;;;;;;;;;59.00;49.25;;;;;-1.11;100.00;101758.63;6258571;22;45000;-86
2022/12/17 23:16:45;;;;;;;;;52.75;48.00;;;;;-1.17;100.00;101752.94;6141849;23;44786;-85
2022/12/17 23:19:11;;;;;;;;;67.50;52.50;;;;;-1.31;100.00;101723.16;6115914;23;48001;-86
2022/12/17 23:21:37;;;;;;;;;63.00;51.50;;;;;-1.39;100.00;101715.50;6139974;23;44789;-85
2022/12/17 23:24:04;;;;;;;;;52.75;48.00;;;;;-1.23;100.00;101747.25;6140039;23;44720;-87
2022/12/17 23:26:33;;;;;;;;;60.00;48.00;;;;;-1.29;100.00;101731.13;6139170;23;44719;-86
2022/12/17 23:29:02;;;;;;;;;60.50;48.50;;;;;-1.48;100.00;101719.22;6139211;23;45228;-87
2022/12/17 23:31:33;;;;;;;;;55.50;46.25;;;;;-1.41;100.00;101736.28;6108415;23;44803;-86
2022/12/17 23:33:58;;;;;;;;;53.75;45.00;;;;;-1.66;100.00;101702.13;6106953;23;44793;-86
2022/12/17 23:36:25;;;;;;;;;52.50;45.25;;;;;-1.46;100.00;101742.84;6132860;23;45487;-86
2022/12/17 23:38:51;;;;;;;;;45.75;41.00;;;;;-1.38;100.00;101746.03;6108963;23;46998;-85
2022/12/17 23:41:27;;;;;;;;;48.00;41.75;;;;;-1.47;100.00;101739.31;6135048;23;45349;-85
2022/12/17 23:43:53;;;;;;;;;55.50;44.50;;;;;-1.44;100.00;101755.19;6137408;23;45193;-86
2022/12/17 23:46:20;;;;;;;;;48.50;45.00;;;;;-1.50;100.00;101753.81;6142479;22;45251;-87
2022/12/17 23:48:47;;;;;;;;;63.00;49.00;;;;;-1.52;100.00;101748.47;6287655;22;45457;-85
2022/12/17 23:51:14;;;;;;;;;54.50;49.50;;;;;-1.57;100.00;101739.41;6262807;22;45326;-86
2022/12/17 23:53:41;;;;;;;;;44.75;43.00;;;;;-1.54;100.00;101746.53;6261574;22;44728;-86
2022/12/17 23:56:09;;;;;;;;;53.25;47.00;;;;;-1.65;100.00;101727.44;6286288;22;45318;-84
2022/12/17 23:58:37;;;;;;;;;47.50;40.75;;;;;-1.51;100.00;101752.91;6261953;22;45388;-85
